Terminal Aerodrome Forecast
Issued by NWS

Home | Current Version | Previous Version | Text Only | Print | Product List | Glossary On
Versions: 1 2 3 4 5 6 7 8 9 10 11 12
638
FTUS42 TJSJ 120545
TAFIST
TAF
TIST 120545Z 1206/1306 08007KT P6SM VCSH SCT025 BKN070
      TEMPO 1206/1208 RA BKN025
     FM121400 13014KT P6SM FEW025 SCT050
     FM122300 09008KT P6SM FEW025=

USA.gov is the U.S. government's official web portal to all federal, state and local government web resources and services.